NORTHERN NASSAU  -  Areal Flood Advisory Areal Flood Advisory     Flash Flood Watch Flash Flood Watch     Rip Current Statement Rip Current Statement        NORTHERN QUEENS  -  Areal Flood Advisory Areal Flood Advisory     Flash Flood Watch Flash Flood Watch     Rip Current Statement Rip Current Statement        SOUTHERN NASSAU  -  Areal Flood Advisory Areal Flood Advisory     Flash Flood Watch Flash Flood Watch     Rip Current Statement Rip Current Statement        SOUTHERN QUEENS  -  Areal Flood Advisory Areal Flood Advisory     Flash Flood Watch Flash Flood Watch     Rip Current Statement Rip Current Statement        NORTHEAST SUFFOLK  -  Rip Current Statement Rip Current Statement        NORTHWEST SUFFOLK  -  Rip Current Statement Rip Current Statement        SOUTHEAST SUFFOLK  -  Rip Current Statement Rip Current Statement        SOUTHWEST SUFFOLK  -  Rip Current Statement Rip Current Statement      

Active alerts

Northern Queens
  Details for Northern Queens Areal Flood Advisory  +2 additional alerts
Southern Queens
  Details for Southern Queens Areal Flood Advisory  +2 additional alerts
Northern Nassau
  Details for Northern Nassau Areal Flood Advisory  +2 additional alerts
Southern Nassau
  Details for Southern Nassau Areal Flood Advisory  +2 additional alerts
Northwest Suffolk
  Details for Northwest Suffolk Rip Current Statement
Southwest Suffolk
  Details for Southwest Suffolk Rip Current Statement
Northeast Suffolk
  Details for Northeast Suffolk Rip Current Statement
Southeast Suffolk
  Details for Southeast Suffolk Rip Current Statement


WXM80 ListenWXM80 Stop

You find our weather info also at:

UK Metoffice

WeatherCloud

Weather Underground

Northeastern Weather Network

AWEKAS

Citizen Weather Observer Program (CWOP)

HAMweather, WeatherForYou, PWS Weather


Weather Underground History page Text

Daily Summary for May 28, 2017 Units:  English    Metric   Both
« Previous Day
Next Day »
Daily Weekly Monthly Yearly Custom
  High: Low: Average:
Temperature: 72.8 °F 57.4 °F 63.8 °F
Dew Point: 63.9 °F 51.6 °F 56.6 °F
Humidity: 95 % 58 % 78 %
Wind Speed: 6.3 mph 0.0 mph 1.3 mph
Wind Gust: 11.5 mph - -
Wind:- - SE
Pressure: 29.93 in 29.85 in -
Precipitation: 0.00 in    
Historical Graphs
 
 
Tabular Data for May 28, 2017
Time Temperature Dew Point Pressure Wind Wind Speed Wind Gust Humidity Rainfall Rate (Hourly)
00:04 60.9 °F 57.3 °F 29.89 in South 0.6 mph 2.0 mph 88 % 0.00 in
00:09 60.9 °F 57.3 °F 29.89 in Calm     88 % 0.00 in
00:14 60.9 °F 57.3 °F 29.88 in SE 0.1 mph   88 % 0.00 in
00:19 60.9 °F 57.3 °F 29.88 in SE 0.6 mph 2.3 mph 88 % 0.00 in
00:24 60.8 °F 57.2 °F 29.88 in SE 0.2 mph 1.0 mph 88 % 0.00 in
00:29 60.8 °F 57.2 °F 29.87 in SE 1.0 mph 4.6 mph 88 % 0.00 in
00:34 60.8 °F 57.2 °F 29.87 in SE 0.9 mph 4.0 mph 88 % 0.00 in
00:39 60.7 °F 57.1 °F 29.87 in SE 0.2 mph 1.2 mph 88 % 0.00 in
00:45 60.7 °F 57.1 °F 29.87 in Calm     88 % 0.00 in
00:50 60.6 °F 57.0 °F 29.87 in Calm     88 % 0.00 in
00:55 60.6 °F 57.0 °F 29.88 in Calm   2.3 mph 88 % 0.00 in
01:00 60.5 °F 56.9 °F 29.88 in SE 0.4 mph 3.5 mph 88 % 0.00 in
01:05 60.5 °F 56.9 °F 29.88 in Calm   1.0 mph 88 % 0.00 in
01:10 60.5 °F 56.9 °F 29.88 in Calm     88 % 0.00 in
01:15 60.5 °F 56.9 °F 29.88 in Calm     88 % 0.00 in
01:20 60.4 °F 57.1 °F 29.88 in Calm     89 % 0.00 in
01:25 60.4 °F 57.1 °F 29.88 in Calm   2.3 mph 89 % 0.00 in
01:30 60.4 °F 57.1 °F 29.88 in Calm   1.2 mph 89 % 0.00 in
01:35 60.4 °F 57.1 °F 29.88 in Calm     89 % 0.00 in
01:40 60.3 °F 57.0 °F 29.88 in Calm     89 % 0.00 in
01:45 60.3 °F 57.0 °F 29.88 in Calm     89 % 0.00 in
01:50 60.3 °F 57.0 °F 29.88 in Calm   1.2 mph 89 % 0.00 in
01:55 60.2 °F 56.9 °F 29.87 in Calm     89 % 0.00 in
02:00 60.2 °F 56.9 °F 29.88 in Calm     89 % 0.00 in
02:05 60.2 °F 56.9 °F 29.88 in Calm     89 % 0.00 in
02:10 60.1 °F 56.8 °F 29.87 in Calm     89 % 0.00 in
02:15 60.1 °F 57.2 °F 29.88 in Calm     90 % 0.00 in
02:20 60.1 °F 57.2 °F 29.88 in Calm     90 % 0.00 in
02:25 60.0 °F 57.1 °F 29.88 in Calm     90 % 0.00 in
02:30 60.0 °F 57.1 °F 29.88 in Calm     90 % 0.00 in
02:35 60.0 °F 57.1 °F 29.88 in Calm     90 % 0.00 in
02:40 59.9 °F 57.0 °F 29.89 in East 1.7 mph 3.5 mph 90 % 0.00 in
02:45 59.9 °F 57.0 °F 29.89 in Calm     90 % 0.00 in
02:50 59.9 °F 57.0 °F 29.89 in Calm     90 % 0.00 in
02:55 59.8 °F 56.9 °F 29.89 in Calm     90 % 0.00 in
03:00 59.8 °F 56.9 °F 29.88 in SE 0.4 mph 3.5 mph 90 % 0.00 in
03:05 59.8 °F 56.9 °F 29.88 in SE 0.5 mph 2.3 mph 90 % 0.00 in
03:10 59.8 °F 56.9 °F 29.88 in SE 0.7 mph 4.0 mph 90 % 0.00 in
03:15 59.7 °F 56.8 °F 29.87 in Calm     90 % 0.00 in
03:20 59.7 °F 56.8 °F 29.87 in Calm     90 % 0.00 in
03:25 59.6 °F 56.7 °F 29.87 in Calm     90 % 0.00 in
03:28 59.6 °F 56.7 °F 29.86 in Calm     90 % 0.00 in
03:33 59.6 °F 56.7 °F 29.86 in Calm   1.0 mph 90 % 0.00 in
03:38 59.5 °F 56.6 °F 29.86 in Calm     90 % 0.00 in
03:43 59.5 °F 56.9 °F 29.86 in Calm     91 % 0.00 in
03:48 59.4 °F 56.8 °F 29.86 in Calm   2.3 mph 91 % 0.00 in
03:53 59.3 °F 56.7 °F 29.86 in SE 0.4 mph 2.0 mph 91 % 0.00 in
03:58 59.3 °F 56.7 °F 29.86 in Calm     91 % 0.00 in
04:03 59.2 °F 56.6 °F 29.86 in SE 0.1 mph 3.5 mph 91 % 0.00 in
04:08 59.1 °F 56.5 °F 29.86 in Calm     91 % 0.00 in
04:13 59.0 °F 56.4 °F 29.86 in Calm     91 % 0.00 in
04:18 59.0 °F 56.4 °F 29.86 in Calm     91 % 0.00 in
04:24 58.9 °F 56.3 °F 29.85 in Calm     91 % 0.00 in
04:29 58.8 °F 56.2 °F 29.85 in Calm     91 % 0.00 in
04:34 58.7 °F 56.1 °F 29.85 in Calm     91 % 0.00 in
04:39 58.6 °F 56.0 °F 29.85 in Calm   1.2 mph 91 % 0.00 in
04:44 58.5 °F 55.9 °F 29.86 in Calm     91 % 0.00 in
04:50 58.4 °F 55.8 °F 29.87 in Calm     91 % 0.00 in
04:55 58.3 °F 55.7 °F 29.88 in Calm   1.2 mph 91 % 0.00 in
05:00 58.2 °F 55.6 °F 29.88 in Calm     91 % 0.00 in
05:05 58.2 °F 55.6 °F 29.88 in SSE 1.0 mph 2.3 mph 91 % 0.00 in
05:10 58.1 °F 55.5 °F 29.89 in Calm     91 % 0.00 in
05:15 58.0 °F 55.4 °F 29.88 in Calm   1.2 mph 91 % 0.00 in
05:20 58.0 °F 55.4 °F 29.89 in SSE 0.3 mph 2.3 mph 91 % 0.00 in
05:25 58.0 °F 55.7 °F 29.88 in Calm     92 % 0.00 in
05:30 58.0 °F 55.7 °F 29.88 in Calm     92 % 0.00 in
05:35 57.9 °F 55.6 °F 29.88 in Calm     92 % 0.00 in
05:40 57.9 °F 55.6 °F 29.88 in Calm     92 % 0.00 in
05:45 57.8 °F 55.5 °F 29.88 in Calm     92 % 0.00 in
05:50 57.7 °F 55.4 °F 29.88 in Calm     92 % 0.00 in
05:55 57.7 °F 55.4 °F 29.88 in Calm     92 % 0.00 in
06:01 57.6 °F 55.3 °F 29.88 in Calm     92 % 0.00 in
06:06 57.5 °F 55.2 °F 29.88 in Calm     92 % 0.00 in
06:11 57.4 °F 55.1 °F 29.88 in Calm     92 % 0.00 in
06:16 57.4 °F 55.1 °F 29.89 in Calm     92 % 0.00 in
06:21 57.4 °F 55.1 °F 29.89 in Calm     92 % 0.00 in
06:26 57.4 °F 55.1 °F 29.89 in Calm     92 % 0.00 in
06:31 57.5 °F 55.5 °F 29.89 in Calm     93 % 0.00 in
06:36 58.0 °F 56.3 °F 29.89 in Calm     94 % 0.00 in
06:41 58.5 °F 57.0 °F 29.89 in Calm     95 % 0.00 in
06:46 58.9 °F 57.5 °F 29.89 in Calm   2.0 mph 95 % 0.00 in
06:51 59.2 °F 57.7 °F 29.90 in Calm     95 % 0.00 in
06:56 59.7 °F 58.2 °F 29.90 in Calm   1.0 mph 95 % 0.00 in
07:01 60.0 °F 58.6 °F 29.90 in SE 1.0 mph 4.0 mph 95 % 0.00 in
07:06 60.1 °F 58.4 °F 29.90 in Calm   1.2 mph 94 % 0.00 in
07:11 60.5 °F 58.2 °F 29.90 in Calm   2.3 mph 92 % 0.00 in
07:16 60.9 °F 58.6 °F 29.90 in Calm     92 % 0.00 in
07:21 61.3 °F 58.3 °F 29.91 in SE 0.2 mph 1.2 mph 90 % 0.00 in
07:26 61.7 °F 58.4 °F 29.91 in Calm   1.2 mph 89 % 0.00 in
07:31 62.1 °F 58.8 °F 29.91 in SW 1.5 mph 3.5 mph 89 % 0.00 in
07:36 62.4 °F 58.5 °F 29.91 in Calm     87 % 0.00 in
07:41 62.7 °F 58.5 °F 29.91 in SW 0.9 mph 2.3 mph 86 % 0.00 in
07:46 62.9 °F 59.0 °F 29.91 in SW 1.5 mph 3.5 mph 87 % 0.00 in
07:51 63.0 °F 59.4 °F 29.91 in Calm     88 % 0.00 in
07:56 63.2 °F 59.9 °F 29.91 in NNE 0.3 mph 2.3 mph 89 % 0.00 in
08:01 63.4 °F 59.8 °F 29.92 in NNE 0.1 mph 2.3 mph 88 % 0.00 in
08:06 63.4 °F 59.5 °F 29.92 in NNE 1.9 mph 3.5 mph 87 % 0.00 in
08:11 63.5 °F 59.6 °F 29.92 in NNE 1.3 mph 2.3 mph 87 % 0.00 in
08:16 63.7 °F 59.8 °F 29.92 in NNE 1.1 mph 2.3 mph 87 % 0.00 in
08:21 63.7 °F 59.4 °F 29.91 in NE 1.6 mph 4.0 mph 86 % 0.00 in
08:27 63.8 °F 59.5 °F 29.92 in NNE 0.8 mph 3.5 mph 86 % 0.00 in
08:32 63.8 °F 59.5 °F 29.92 in North 2.6 mph 4.6 mph 86 % 0.00 in
08:37 63.7 °F 59.4 °F 29.92 in NNE 0.3 mph 2.3 mph 86 % 0.00 in
08:42 63.7 °F 59.4 °F 29.92 in North 1.9 mph 4.0 mph 86 % 0.00 in
08:47 63.5 °F 59.2 °F 29.91 in North 3.2 mph 5.8 mph 86 % 0.00 in
08:52 63.4 °F 59.1 °F 29.91 in North 1.5 mph 4.0 mph 86 % 0.00 in
08:57 63.3 °F 59.0 °F 29.92 in North 3.5 mph 5.8 mph 86 % 0.00 in
09:02 63.3 °F 59.4 °F 29.92 in ENE 4.6 mph 6.9 mph 87 % 0.00 in
09:07 63.3 °F 59.4 °F 29.92 in NNE 2.4 mph 4.6 mph 87 % 0.00 in
09:12 63.4 °F 59.5 °F 29.91 in ENE 2.8 mph 4.6 mph 87 % 0.00 in
09:17 63.5 °F 59.6 °F 29.91 in North 2.7 mph 5.8 mph 87 % 0.00 in
09:23 63.6 °F 59.3 °F 29.91 in ENE 2.6 mph 4.6 mph 86 % 0.00 in
09:28 63.4 °F 59.1 °F 29.91 in ENE 3.1 mph 5.8 mph 86 % 0.00 in
09:33 63.4 °F 59.1 °F 29.91 in NE 5.3 mph 9.2 mph 86 % 0.00 in
09:38 63.6 °F 59.7 °F 29.91 in North 3.1 mph 5.0 mph 87 % 0.00 in
09:43 64.0 °F 59.7 °F 29.91 in NNE 2.2 mph 4.6 mph 86 % 0.00 in
09:48 64.4 °F 59.8 °F 29.91 in NNE 4.2 mph 5.8 mph 85 % 0.00 in
09:53 64.9 °F 60.3 °F 29.91 in NNE 3.0 mph 8.1 mph 85 % 0.00 in
09:58 65.5 °F 60.5 °F 29.91 in North 4.9 mph 7.0 mph 84 % 0.00 in
10:03 66.3 °F 61.3 °F 29.91 in NNE 1.9 mph 5.8 mph 84 % 0.00 in
10:08 67.0 °F 61.3 °F 29.90 in NE 1.4 mph 4.6 mph 82 % 0.00 in
10:13 67.6 °F 61.6 °F 29.90 in NE 3.2 mph 3.5 mph 81 % 0.00 in
10:18 67.9 °F 61.1 °F 29.90 in NE 2.7 mph 4.6 mph 79 % 0.00 in
10:23 68.3 °F 61.9 °F 29.90 in ENE 3.0 mph 4.6 mph 80 % 0.00 in
10:28 68.3 °F 60.8 °F 29.90 in ENE 1.6 mph 4.6 mph 77 % 0.00 in
10:33 68.5 °F 61.7 °F 29.90 in ENE 2.2 mph 4.6 mph 79 % 0.00 in
10:38 68.8 °F 61.7 °F 29.91 in ENE 2.0 mph 7.0 mph 78 % 0.00 in
10:43 68.6 °F 60.7 °F 29.90 in ENE 4.7 mph 8.1 mph 76 % 0.00 in
10:48 68.3 °F 61.2 °F 29.90 in NNE 4.1 mph 6.9 mph 78 % 0.00 in
10:53 68.7 °F 62.3 °F 29.90 in NE 1.7 mph 3.5 mph 80 % 0.00 in
10:58 69.2 °F 62.0 °F 29.90 in ENE 1.7 mph 5.0 mph 78 % 0.00 in
11:03 69.5 °F 62.3 °F 29.91 in North 4.1 mph 5.8 mph 78 % 0.00 in
11:08 69.9 °F 62.4 °F 29.91 in ESE 1.8 mph 6.0 mph 77 % 0.00 in
11:13 70.2 °F 61.1 °F 29.91 in SSE 4.6 mph 8.1 mph 73 % 0.00 in
11:18 70.7 °F 61.6 °F 29.91 in SSE 3.1 mph 10.4 mph 73 % 0.00 in
11:23 71.0 °F 61.1 °F 29.90 in SSE 5.2 mph 7.0 mph 71 % 0.00 in
11:28 71.2 °F 62.5 °F 29.90 in SE 1.0 mph 3.5 mph 74 % 0.00 in
11:33 71.6 °F 63.3 °F 29.91 in South 0.7 mph 2.3 mph 75 % 0.00 in
11:38 72.3 °F 63.9 °F 29.91 in SSE 0.4 mph 2.3 mph 75 % 0.00 in
11:43 72.8 °F 62.0 °F 29.91 in SSE 4.4 mph 9.0 mph 69 % 0.00 in
11:49 72.8 °F 63.6 °F 29.91 in SE 4.0 mph 5.0 mph 73 % 0.00 in
11:54 72.7 °F 61.1 °F 29.92 in SE 6.3 mph 8.1 mph 67 % 0.00 in
11:59 72.1 °F 60.1 °F 29.92 in SE 3.6 mph 9.2 mph 66 % 0.00 in
12:04 72.0 °F 61.3 °F 29.92 in SSE 2.5 mph 4.0 mph 69 % 0.00 in
12:09 72.1 °F 61.0 °F 29.92 in South 1.7 mph 5.8 mph 68 % 0.00 in
12:14 72.3 °F 61.6 °F 29.92 in SSW 1.0 mph 3.5 mph 69 % 0.00 in
12:19 72.4 °F 60.0 °F 29.93 in SE 4.0 mph 8.0 mph 65 % 0.00 in
12:24 72.2 °F 59.8 °F 29.92 in WSW 1.3 mph 4.6 mph 65 % 0.00 in
12:29 71.9 °F 60.3 °F 29.93 in SSE 3.7 mph 6.9 mph 67 % 0.00 in
12:34 71.6 °F 59.6 °F 29.93 in SSE 1.7 mph 8.1 mph 66 % 0.00 in
12:39 71.3 °F 59.4 °F 29.93 in SE 4.0 mph 6.9 mph 66 % 0.00 in
12:44 71.5 °F 61.2 °F 29.93 in SE 3.8 mph 8.1 mph 70 % 0.00 in
12:49 71.4 °F 59.4 °F 29.93 in ESE 1.2 mph 4.6 mph 66 % 0.00 in
12:54 71.6 °F 59.6 °F 29.93 in SE 5.1 mph 8.1 mph 66 % 0.00 in
12:59 71.6 °F 61.3 °F 29.93 in ESE 0.6 mph 3.5 mph 70 % 0.00 in
13:04 72.0 °F 61.3 °F 29.93 in SSE 0.7 mph 4.0 mph 69 % 0.00 in
13:09 72.2 °F 60.2 °F 29.93 in SE 0.4 mph 4.6 mph 66 % 0.00 in
13:14 72.3 °F 60.3 °F 29.93 in SE 2.3 mph 4.0 mph 66 % 0.00 in
13:19 72.4 °F 60.0 °F 29.93 in SSE 1.4 mph 3.5 mph 65 % 0.00 in
13:24 72.3 °F 60.3 °F 29.93 in SE 2.6 mph 6.0 mph 66 % 0.00 in
13:29 72.4 °F 61.7 °F 29.93 in South 0.3 mph 3.5 mph 69 % 0.00 in
13:34 72.4 °F 60.4 °F 29.93 in SE 0.4 mph 4.6 mph 66 % 0.00 in
13:39 72.4 °F 60.4 °F 29.93 in SE 1.6 mph 4.6 mph 66 % 0.00 in
13:44 72.3 °F 59.0 °F 29.93 in SE 5.1 mph 10.4 mph 63 % 0.00 in
13:50 72.2 °F 61.0 °F 29.93 in ESE 0.1 mph 5.8 mph 68 % 0.00 in
13:55 72.1 °F 60.1 °F 29.93 in South 3.3 mph 11.0 mph 66 % 0.00 in
14:00 71.7 °F 59.7 °F 29.93 in SE 4.6 mph 8.1 mph 66 % 0.00 in
14:05 71.3 °F 58.9 °F 29.93 in SE 2.5 mph 5.8 mph 65 % 0.00 in
14:10 70.9 °F 59.0 °F 29.93 in SSE 4.8 mph 10.4 mph 66 % 0.00 in
14:15 70.7 °F 60.0 °F 29.93 in SE 1.6 mph 10.4 mph 69 % 0.00 in
14:20 70.7 °F 60.0 °F 29.93 in South 1.2 mph 5.8 mph 69 % 0.00 in
14:25 70.8 °F 58.9 °F 29.93 in SSE 4.4 mph 9.2 mph 66 % 0.00 in
14:30 70.6 °F 58.3 °F 29.93 in SE 1.8 mph 5.8 mph 65 % 0.00 in
14:35 70.4 °F 57.6 °F 29.92 in SSE 3.9 mph 9.2 mph 64 % 0.00 in
14:40 70.1 °F 59.0 °F 29.93 in SE 0.6 mph 5.0 mph 68 % 0.00 in
14:45 70.1 °F 58.6 °F 29.92 in Calm   1.2 mph 67 % 0.00 in
14:50 70.1 °F 58.2 °F 29.92 in SE 6.0 mph 9.2 mph 66 % 0.00 in
14:55 70.3 °F 59.6 °F 29.91 in SE 1.6 mph 3.5 mph 69 % 0.00 in
15:00 70.5 °F 59.0 °F 29.91 in SSE 0.9 mph 2.3 mph 67 % 0.00 in
15:05 70.6 °F 59.1 °F 29.91 in SSE 0.3 mph 2.3 mph 67 % 0.00 in
15:06 70.6 °F 58.3 °F 29.91 in SSE 0.2 mph 2.3 mph 65 % 0.00 in
15:11 70.8 °F 60.5 °F 29.91 in SSE 0.4 mph 2.3 mph 70 % 0.00 in
15:16 70.8 °F 58.4 °F 29.91 in SE 1.9 mph 8.0 mph 65 % 0.00 in
15:21 70.6 °F 58.7 °F 29.91 in SE 3.4 mph 6.9 mph 66 % 0.00 in
15:26 70.5 °F 58.2 °F 29.92 in SSE 1.3 mph 4.6 mph 65 % 0.00 in
15:31 70.1 °F 56.0 °F 29.91 in SE 5.2 mph 9.2 mph 61 % 0.00 in
15:36 69.7 °F 57.0 °F 29.91 in Calm   2.3 mph 64 % 0.00 in
15:41 69.7 °F 57.4 °F 29.91 in South 3.2 mph 6.9 mph 65 % 0.00 in
15:46 69.3 °F 57.0 °F 29.91 in SE 0.6 mph 5.0 mph 65 % 0.00 in
15:50 69.0 °F 56.7 °F 29.91 in SE 3.8 mph 7.0 mph 65 % 0.00 in
15:55 68.8 °F 56.1 °F 29.91 in SSE 5.3 mph 8.1 mph 64 % 0.00 in
16:00 68.6 °F 56.4 °F 29.91 in SE 4.5 mph 7.0 mph 65 % 0.00 in
16:05 68.4 °F 55.7 °F 29.90 in SSE 1.9 mph 9.2 mph 64 % 0.00 in
16:10 68.4 °F 56.2 °F 29.91 in SE 3.0 mph 7.0 mph 65 % 0.00 in
16:15 68.5 °F 56.7 °F 29.91 in ESE 0.1 mph 2.3 mph 66 % 0.00 in
16:20 68.5 °F 55.0 °F 29.91 in SE 4.3 mph 6.9 mph 62 % 0.00 in
16:25 68.5 °F 54.5 °F 29.91 in SSE 4.6 mph 9.2 mph 61 % 0.00 in
16:30 68.1 °F 52.8 °F 29.91 in SE 1.4 mph 8.1 mph 58 % 0.00 in
16:35 67.9 °F 53.5 °F 29.90 in SE 2.3 mph 3.5 mph 60 % 0.00 in
16:40 67.9 °F 54.4 °F 29.90 in SSE 2.9 mph 4.6 mph 62 % 0.00 in
16:45 67.9 °F 53.5 °F 29.90 in SE 1.4 mph 3.5 mph 60 % 0.00 in
16:50 67.7 °F 53.3 °F 29.90 in ESE 3.1 mph 8.1 mph 60 % 0.00 in
16:55 67.5 °F 52.2 °F 29.91 in SE 5.9 mph 11.5 mph 58 % 0.00 in
17:00 67.3 °F 52.5 °F 29.91 in SE 2.2 mph 6.0 mph 59 % 0.00 in
17:06 67.2 °F 53.3 °F 29.91 in Calm   6.0 mph 61 % 0.00 in
17:11 67.1 °F 53.2 °F 29.91 in SSE 1.0 mph 8.0 mph 61 % 0.00 in
17:16 67.0 °F 53.5 °F 29.92 in SE 2.0 mph 6.0 mph 62 % 0.00 in
17:21 66.8 °F 53.4 °F 29.92 in SE 2.0 mph 7.0 mph 62 % 0.00 in
17:26 66.7 °F 54.1 °F 29.92 in SSE 1.0 mph 8.0 mph 64 % 0.00 in
17:31 66.5 °F 54.0 °F 29.92 in SE 2.0 mph 9.0 mph 64 % 0.00 in
17:36 66.3 °F 53.3 °F 29.92 in SSE 1.1 mph 4.6 mph 63 % 0.00 in
17:41 66.2 °F 54.5 °F 29.93 in SSE 0.3 mph 2.3 mph 66 % 0.00 in
17:46 66.1 °F 54.8 °F 29.92 in SE 1.7 mph 4.0 mph 67 % 0.00 in
17:51 66.0 °F 53.9 °F 29.93 in SE 1.2 mph 4.6 mph 65 % 0.00 in
17:56 65.8 °F 52.4 °F 29.92 in SE 5.2 mph 8.1 mph 62 % 0.00 in
18:02 65.6 °F 52.7 °F 29.92 in SE 1.5 mph 5.8 mph 63 % 0.00 in
18:07 65.5 °F 53.4 °F 29.93 in SE 3.6 mph 6.0 mph 65 % 0.00 in
18:12 65.3 °F 52.8 °F 29.93 in South 4.4 mph 8.0 mph 64 % 0.00 in
18:17 65.1 °F 52.6 °F 29.93 in SSE 2.2 mph 4.6 mph 64 % 0.00 in
18:22 64.9 °F 52.4 °F 29.93 in SSE 4.2 mph 6.9 mph 64 % 0.00 in
18:27 64.7 °F 52.2 °F 29.92 in SE 2.1 mph 9.2 mph 64 % 0.00 in
18:32 64.6 °F 52.1 °F 29.92 in SE 2.9 mph 5.8 mph 64 % 0.00 in
18:37 64.5 °F 52.5 °F 29.92 in SE 2.3 mph 6.0 mph 65 % 0.00 in
18:42 64.3 °F 52.3 °F 29.92 in SE 3.8 mph 6.9 mph 65 % 0.00 in
18:47 64.3 °F 52.7 °F 29.92 in ESE 3.6 mph 8.1 mph 66 % 0.00 in
18:52 64.1 °F 52.1 °F 29.92 in SE 1.5 mph 3.5 mph 65 % 0.00 in
18:57 64.0 °F 52.0 °F 29.92 in SE 1.5 mph 4.6 mph 65 % 0.00 in
19:02 64.0 °F 52.4 °F 29.92 in SE 1.8 mph 4.0 mph 66 % 0.00 in
19:07 63.8 °F 52.2 °F 29.92 in SSE 3.5 mph 4.6 mph 66 % 0.00 in
19:12 63.7 °F 52.1 °F 29.93 in SE 1.0 mph 3.5 mph 66 % 0.00 in
19:17 63.6 °F 52.4 °F 29.93 in SE 1.2 mph 3.5 mph 67 % 0.00 in
19:22 63.5 °F 51.9 °F 29.92 in SE 0.6 mph 4.6 mph 66 % 0.00 in
19:27 63.4 °F 52.7 °F 29.92 in SE 0.2 mph 3.5 mph 68 % 0.00 in
19:32 63.2 °F 52.1 °F 29.92 in SE 3.2 mph 5.0 mph 67 % 0.00 in
19:34 63.2 °F 52.5 °F 29.92 in ESE 1.6 mph 4.6 mph 68 % 0.00 in
19:39 63.0 °F 51.9 °F 29.92 in SE 0.5 mph 5.8 mph 67 % 0.00 in
19:44 62.8 °F 51.7 °F 29.93 in ESE 2.3 mph 5.8 mph 67 % 0.00 in
19:49 62.7 °F 51.6 °F 29.92 in SSE 0.7 mph 4.6 mph 67 % 0.00 in
19:54 62.6 °F 51.9 °F 29.92 in SE 1.6 mph 8.0 mph 68 % 0.00 in
19:59 62.4 °F 52.1 °F 29.92 in SE 0.5 mph 4.6 mph 69 % 0.00 in
20:04 62.3 °F 52.0 °F 29.92 in SE 0.2 mph 1.2 mph 69 % 0.00 in
20:09 62.2 °F 52.3 °F 29.92 in SE 3.3 mph 4.6 mph 70 % 0.00 in
20:14 62.1 °F 52.6 °F 29.92 in SE 0.4 mph 2.3 mph 71 % 0.00 in
20:19 61.9 °F 52.8 °F 29.92 in SE 0.3 mph 2.3 mph 72 % 0.00 in
20:24 61.8 °F 52.3 °F 29.92 in SE 0.1 mph 1.2 mph 71 % 0.00 in
20:34 61.6 °F 52.9 °F 29.92 in Calm     73 % 0.00 in
20:39 61.4 °F 52.3 °F 29.92 in Calm   3.5 mph 72 % 0.00 in
20:44 61.3 °F 52.6 °F 29.92 in SE 0.1 mph 3.5 mph 73 % 0.00 in
20:49 61.2 °F 52.5 °F 29.91 in SE 2.0 mph 4.6 mph 73 % 0.00 in
20:54 61.1 °F 52.4 °F 29.91 in SE 0.8 mph 3.5 mph 73 % 0.00 in
20:59 60.9 °F 52.6 °F 29.91 in SE 1.4 mph 4.0 mph 74 % 0.00 in
21:04 60.8 °F 52.5 °F 29.91 in SSE 0.1 mph 1.2 mph 74 % 0.00 in
21:09 60.7 °F 52.4 °F 29.91 in SE 2.4 mph 4.6 mph 74 % 0.00 in
21:14 60.6 °F 52.6 °F 29.91 in Calm   1.2 mph 75 % 0.00 in
21:19 60.5 °F 52.5 °F 29.92 in SE 0.2 mph 3.5 mph 75 % 0.00 in
21:25 60.4 °F 52.4 °F 29.92 in Calm     75 % 0.00 in
21:30 60.3 °F 52.7 °F 29.91 in SE 0.5 mph 2.0 mph 76 % 0.00 in
21:35 60.2 °F 52.6 °F 29.91 in SE 1.8 mph 3.5 mph 76 % 0.00 in
21:40 60.1 °F 52.9 °F 29.91 in SE 0.6 mph 3.0 mph 77 % 0.00 in
21:45 60.0 °F 53.1 °F 29.91 in Calm   1.2 mph 78 % 0.00 in
21:50 59.9 °F 53.0 °F 29.91 in SE 1.1 mph 3.5 mph 78 % 0.00 in
21:55 59.8 °F 52.9 °F 29.91 in SE 0.1 mph 3.5 mph 78 % 0.00 in
22:00 59.8 °F 52.9 °F 29.91 in SSE 0.1 mph 1.2 mph 78 % 0.00 in
22:05 59.7 °F 53.2 °F 29.91 in Calm     79 % 0.00 in
22:10 59.7 °F 53.2 °F 29.90 in Calm     79 % 0.00 in
22:15 59.6 °F 53.4 °F 29.91 in Calm     80 % 0.00 in
22:20 59.6 °F 53.4 °F 29.90 in SE 1.1 mph 3.5 mph 80 % 0.00 in
22:25 59.6 °F 53.4 °F 29.90 in Calm   1.2 mph 80 % 0.00 in
22:27 59.5 °F 53.3 °F 29.90 in Calm     80 % 0.00 in
22:32 59.5 °F 53.7 °F 29.90 in Calm   1.2 mph 81 % 0.00 in
22:37 59.5 °F 53.3 °F 29.90 in SE 0.1 mph 1.2 mph 80 % 0.00 in
22:42 59.5 °F 53.3 °F 29.91 in Calm   1.2 mph 80 % 0.00 in
22:47 59.5 °F 53.7 °F 29.91 in SE 0.7 mph 3.5 mph 81 % 0.00 in
22:52 59.4 °F 53.2 °F 29.91 in Calm   3.5 mph 80 % 0.00 in
22:57 59.4 °F 53.6 °F 29.91 in ESE 0.7 mph 4.0 mph 81 % 0.00 in
23:02 59.4 °F 53.2 °F 29.91 in SE 1.8 mph 5.8 mph 80 % 0.00 in
23:07 59.4 °F 53.2 °F 29.90 in SSE 0.4 mph 4.6 mph 80 % 0.00 in
23:12 59.4 °F 53.2 °F 29.90 in SE 1.0 mph 3.5 mph 80 % 0.00 in
23:17 59.4 °F 53.2 °F 29.90 in SE 0.1 mph 1.2 mph 80 % 0.00 in
23:22 59.3 °F 53.5 °F 29.90 in SE 0.8 mph 4.0 mph 81 % 0.00 in
23:27 59.3 °F 53.5 °F 29.90 in Calm     81 % 0.00 in
23:32 59.3 °F 53.5 °F 29.90 in Calm     81 % 0.00 in
23:37 59.3 °F 53.5 °F 29.90 in SSE 0.1 mph 1.2 mph 81 % 0.00 in
23:42 59.3 °F 53.5 °F 29.90 in Calm   1.2 mph 81 % 0.00 in
23:47 59.2 °F 53.7 °F 29.89 in Calm     82 % 0.00 in
23:49 59.3 °F 53.8 °F 29.89 in Calm     82 % 0.00 in
23:54 59.2 °F 53.4 °F 29.89 in SSE 0.1 mph 1.2 mph 81 % 0.00 in
23:59 59.2 °F 53.4 °F 29.89 in Calm   1.2 mph 81 % 0.00 in
Crab Meadow Weather
Compliments of Weather Underground - 3 mb

Script developed by  Jim McMurry - jmcmurry@mwt.net Adapted for the template by  Wim van der Kuil - Leuven-Template.eu

Weather Terms: Heavy Snow Warning - Snowfall of 6 inches or more in 12 hours or less, or 8 inches or more in 24 hours or less.